createdAt,value
2019-03-05T12:58:20.873Z,1002.93
2019-03-05T12:59:30.810Z,1002.97
2019-03-05T13:00:40.504Z,1003.01
2019-03-05T13:01:49.946Z,1003
2019-03-05T13:02:59.129Z,1002.98
2019-03-05T13:04:08.820Z,1003
2019-03-05T13:05:18.756Z,1003.02
2019-03-05T13:06:27.939Z,1003.04
2019-03-05T13:07:37.193Z,1002.92
2019-03-05T13:08:46.636Z,1003.02
2019-03-05T13:09:56.862Z,1003.04
2019-03-05T13:11:12.925Z,1002.96
2019-03-05T13:12:22.580Z,1002.96
2019-03-05T13:13:37.448Z,1002.98
2019-03-05T13:14:53.327Z,1003.04
2019-03-05T13:16:03.083Z,1002.97
2019-03-05T13:17:14.455Z,1003.01
2019-03-05T13:18:26.710Z,1003.02
2019-03-05T13:19:38.829Z,1003.08
2019-03-05T13:20:56.606Z,1003.02
2019-03-05T13:22:10.792Z,1003.09
2019-03-05T13:23:20.734Z,1003.14
2019-03-05T13:24:30.438Z,1003.14
2019-03-05T13:25:40.123Z,1003.21
2019-03-05T13:26:49.824Z,1003.12
2019-03-05T13:28:01.904Z,1003.18
2019-03-05T13:29:14.302Z,1003.21
2019-03-05T13:30:27.170Z,1003.34
2019-03-05T13:31:38.623Z,1003.29
2019-03-05T13:32:53.955Z,1003.28
2019-03-05T13:34:08.746Z,1003.3
2019-03-05T13:35:25.310Z,1003.33
2019-03-05T13:36:39.695Z,1003.37
2019-03-05T13:37:53.452Z,1003.39
2019-03-05T13:39:10.752Z,1003.48
2019-03-05T13:40:24.669Z,1003.51
2019-03-05T13:41:43.502Z,1003.51
2019-03-05T13:42:56.744Z,1003.5
2019-03-05T13:44:06.175Z,1003.59
2019-03-05T13:45:15.862Z,1003.57
2019-03-05T13:46:29.641Z,1003.52
2019-03-05T13:47:41.576Z,1003.53
2019-03-05T13:48:58.170Z,1003.57
2019-03-05T13:50:08.835Z,1003.58
2019-03-05T13:51:19.409Z,1003.63
2019-03-05T13:52:32.099Z,1003.64
2019-03-05T13:53:43.708Z,1003.56
2019-03-05T13:55:09.373Z,1003.62
2019-03-05T13:56:19.073Z,1003.65
2019-03-05T13:57:29.029Z,1003.67
2019-03-05T13:58:38.715Z,1003.66
2019-03-05T13:59:48.160Z,1003.63
2019-03-05T14:00:58.119Z,1003.65
2019-03-05T14:02:07.565Z,1003.64
2019-03-05T14:03:17.262Z,1003.69
2019-03-05T14:04:27.195Z,1003.73
2019-03-05T14:05:37.150Z,1003.71
2019-03-05T14:06:48.028Z,1003.81
2019-03-05T14:07:58.244Z,1003.71
2019-03-05T14:09:08.965Z,1003.77
2019-03-05T14:10:18.895Z,1003.77
2019-03-05T14:11:31.168Z,1003.8
2019-03-05T14:12:41.211Z,1003.76
2019-03-05T14:13:51.191Z,1003.83
2019-03-05T14:15:01.190Z,1003.83
2019-03-05T14:16:11.199Z,1003.9
2019-03-05T14:17:21.176Z,1003.95
2019-03-05T14:18:31.231Z,1003.92
2019-03-05T14:19:41.295Z,1003.94
2019-03-05T14:20:51.349Z,1004
2019-03-05T14:22:01.109Z,1004
2019-03-05T14:23:11.147Z,1004.02
2019-03-05T14:24:21.128Z,1003.99
2019-03-05T14:25:30.929Z,1004.04
2019-03-05T14:26:40.939Z,1004.02
2019-03-05T14:27:50.973Z,1004.09
2019-03-05T14:29:00.282Z,1004.08
2019-03-05T14:30:10.353Z,1004.12
2019-03-05T14:31:21.557Z,1004.13
2019-03-05T14:32:31.037Z,1004.09
2019-03-05T14:33:41.128Z,1004.07
2019-03-05T14:34:53.331Z,1004.15
2019-03-05T14:36:03.398Z,1004.11
2019-03-05T14:37:13.164Z,1004.19
2019-03-05T14:38:23.226Z,1004.23
2019-03-05T14:39:33.266Z,1004.2
2019-03-05T14:40:43.300Z,1004.18
2019-03-05T14:41:53.437Z,1004.18
2019-03-05T14:43:03.485Z,1004.13
2019-03-05T14:44:13.366Z,1004.23
2019-03-05T14:45:23.379Z,1004.24
2019-03-05T14:46:33.446Z,1004.26
2019-03-05T14:47:43.190Z,1004.29
2019-03-05T14:48:53.257Z,1004.28
2019-03-05T14:50:03.349Z,1004.23
2019-03-05T14:51:13.128Z,1004.32
2019-03-05T14:52:22.944Z,1004.31
2019-03-05T14:53:32.912Z,1004.33
2019-03-05T14:54:42.787Z,1004.32
2019-03-05T14:55:54.533Z,1004.41
2019-03-05T14:57:04.438Z,1004.4
2019-03-05T14:58:14.036Z,1004.38
2019-03-05T14:59:24.069Z,1004.43
2019-03-05T15:00:33.623Z,1004.4
2019-03-05T15:01:43.696Z,1004.42
2019-03-05T15:02:53.834Z,1004.45
2019-03-05T15:04:04.036Z,1004.44
2019-03-05T15:05:14.179Z,1004.43
2019-03-05T15:06:24.346Z,1004.45
2019-03-05T15:07:34.374Z,1004.51
2019-03-05T15:08:44.174Z,1004.5
2019-03-05T15:09:53.731Z,1004.52
2019-03-05T15:11:03.776Z,1004.54
2019-03-05T15:12:13.677Z,1004.61
2019-03-05T15:13:23.466Z,1004.58
2019-03-05T15:14:33.152Z,1004.6
2019-03-05T15:15:43.218Z,1004.61
2019-03-05T15:16:52.896Z,1004.64
2019-03-05T15:18:02.704Z,1004.62
2019-03-05T15:19:20.783Z,1004.64
2019-03-05T15:20:31.397Z,1004.6
2019-03-05T15:21:41.509Z,1004.59
2019-03-05T15:22:51.586Z,1004.61
2019-03-05T15:24:01.541Z,1004.66
2019-03-05T15:25:11.651Z,1004.68
2019-03-05T15:26:21.797Z,1004.74
2019-03-05T15:27:31.667Z,1004.71
2019-03-05T15:28:41.779Z,1004.7
2019-03-05T15:30:03.820Z,1004.74
2019-03-05T15:31:13.368Z,1004.71
2019-03-05T15:32:23.155Z,1004.69
2019-03-05T15:33:32.940Z,1004.68
2019-03-05T15:34:42.283Z,1004.7
2019-03-05T15:35:52.329Z,1004.73
2019-03-05T15:37:02.300Z,1004.72
2019-03-05T15:38:12.149Z,1004.69
2019-03-05T15:39:22.017Z,1004.74
2019-03-05T15:40:32.164Z,1004.73
2019-03-05T15:41:45.667Z,1004.69
2019-03-05T15:42:55.953Z,1004.72
2019-03-05T15:44:06.561Z,1004.66
2019-03-05T15:45:15.888Z,1004.73
2019-03-05T15:46:25.972Z,1004.84
2019-03-05T15:47:36.028Z,1004.72
2019-03-05T15:48:48.021Z,1004.77
2019-03-05T15:49:58.131Z,1004.75
2019-03-05T15:51:07.770Z,1004.85
2019-03-05T15:52:17.614Z,1004.83
2019-03-05T15:53:27.971Z,1004.83
2019-03-05T15:54:37.864Z,1004.83
2019-03-05T15:55:47.076Z,1004.87
2019-03-05T15:56:58.652Z,1004.85
2019-03-05T15:58:08.613Z,1004.84
2019-03-05T15:59:18.570Z,1004.87
2019-03-05T16:00:28.850Z,1004.9
2019-03-05T16:01:38.317Z,1004.98
2019-03-05T16:02:48.258Z,1004.94
2019-03-05T16:03:58.067Z,1005.01
2019-03-05T16:05:11.529Z,1004.97
2019-03-05T16:06:30.009Z,1005
2019-03-05T16:07:43.824Z,1004.99
2019-03-05T16:08:57.827Z,1005.02
2019-03-05T16:10:13.236Z,1005.04
2019-03-05T16:11:24.342Z,1005.09
2019-03-05T16:12:42.548Z,1005.08
2019-03-05T16:13:56.400Z,1005.07
2019-03-05T16:15:08.958Z,1004.96
2019-03-05T16:16:21.573Z,1004.97
2019-03-05T16:17:31.516Z,1005.04
2019-03-05T16:18:40.712Z,1005.05
2019-03-05T16:19:52.739Z,1005.08
2019-03-05T16:21:04.780Z,1005.07
2019-03-05T16:22:18.214Z,1005.14
2019-03-05T16:23:29.513Z,1005.12
2019-03-05T16:24:39.259Z,1005.14
2019-03-05T16:25:50.241Z,1005.17
2019-03-05T16:27:00.586Z,1005.18
2019-03-05T16:28:10.616Z,1005.19
2019-03-05T16:29:20.910Z,1005.23
2019-03-05T16:30:34.269Z,1005.22
2019-03-05T16:31:45.294Z,1005.27
2019-03-05T16:32:59.896Z,1005.36
2019-03-05T16:34:13.051Z,1005.33
2019-03-05T16:35:23.108Z,1005.35
2019-03-05T16:36:32.357Z,1005.37
2019-03-05T16:37:45.072Z,1005.4
2019-03-05T16:38:55.985Z,1005.45
2019-03-05T16:40:08.857Z,1005.43
2019-03-05T16:41:20.488Z,1005.47
2019-03-05T16:42:34.365Z,1005.49
2019-03-05T16:43:46.720Z,1005.51
2019-03-05T16:44:56.201Z,1005.49
2019-03-05T16:46:07.793Z,1005.48
2019-03-05T16:47:17.530Z,1005.54
2019-03-05T16:48:27.511Z,1005.58
2019-03-05T16:49:37.488Z,1005.61
2019-03-05T16:50:47.489Z,1005.59
2019-03-05T16:51:57.200Z,1005.68
2019-03-05T16:53:06.405Z,1005.69
2019-03-05T16:54:16.377Z,1005.7
2019-03-05T16:55:25.594Z,1005.69
2019-03-05T16:56:35.307Z,1005.72
2019-03-05T16:57:45.265Z,1005.73
2019-03-05T16:58:55.015Z,1005.76
2019-03-05T17:00:04.737Z,1005.76
2019-03-05T17:01:14.447Z,1005.81
2019-03-05T17:02:23.926Z,1005.79
2019-03-05T17:03:33.640Z,1005.79
2019-03-05T17:04:43.614Z,1005.76
2019-03-05T17:05:53.587Z,1005.81
2019-03-05T17:07:03.757Z,1005.83
2019-03-05T17:08:13.873Z,1005.87
2019-03-05T17:09:23.430Z,1005.85
2019-03-05T17:10:33.528Z,1005.9
2019-03-05T17:11:43.151Z,1005.95
2019-03-05T17:12:52.851Z,1005.95
2019-03-05T17:14:02.209Z,1006.02
2019-03-05T17:15:12.187Z,1006.08
2019-03-05T17:16:21.947Z,1006.05
2019-03-05T17:17:31.560Z,1006.11
2019-03-05T17:18:40.889Z,1006.17
2019-03-05T17:19:50.341Z,1006.18
2019-03-05T17:21:00.047Z,1006.21
2019-03-05T17:22:09.750Z,1006.18
2019-03-05T17:23:19.715Z,1006.22
2019-03-05T17:24:29.425Z,1006.26
2019-03-05T17:25:39.395Z,1006.26
2019-03-05T17:26:49.113Z,1006.23
2019-03-05T17:27:59.605Z,1006.28
2019-03-05T17:29:08.821Z,1006.33
2019-03-05T17:30:18.770Z,1006.36
2019-03-05T17:31:28.752Z,1006.38
2019-03-05T17:32:38.475Z,1006.38
2019-03-05T17:33:48.480Z,1006.44
2019-03-05T17:34:58.435Z,1006.45
2019-03-05T17:36:07.895Z,1006.48
2019-03-05T17:37:17.586Z,1006.51
2019-03-05T17:38:26.810Z,1006.51
2019-03-05T17:39:36.814Z,1006.48
2019-03-05T17:40:46.950Z,1006.49
2019-03-05T17:41:57.016Z,1006.51
2019-03-05T17:43:07.066Z,1006.48
2019-03-05T17:44:16.968Z,1006.55
2019-03-05T17:45:26.544Z,1006.57
2019-03-05T17:46:36.451Z,1006.63
2019-03-05T17:47:46.502Z,1006.61
2019-03-05T17:48:56.248Z,1006.64
2019-03-05T17:50:06.007Z,1006.67
2019-03-05T17:51:15.713Z,1006.64
2019-03-05T17:52:25.696Z,1006.65
2019-03-05T17:53:35.668Z,1006.64
2019-03-05T17:54:45.374Z,1006.67
2019-03-05T17:55:55.087Z,1006.65
2019-03-05T17:57:04.545Z,1006.74
2019-03-05T17:58:16.706Z,1006.72
2019-03-05T17:59:26.426Z,1006.75
2019-03-05T18:00:36.405Z,1006.77
2019-03-05T18:01:46.358Z,1006.81
2019-03-05T18:02:55.817Z,1006.82
2019-03-05T18:04:05.697Z,1006.88
2019-03-05T18:05:15.152Z,1006.88
2019-03-05T18:06:26.886Z,1006.82
2019-03-05T18:07:36.859Z,1006.95
2019-03-05T18:08:46.813Z,1006.94
2019-03-05T18:09:56.836Z,1006.93
2019-03-05T18:11:07.658Z,1006.99
2019-03-05T18:12:17.349Z,1007.02
2019-03-05T18:13:27.479Z,1007.01
2019-03-05T18:14:37.863Z,1007.07
2019-03-05T18:15:47.448Z,1007.07
2019-03-05T18:16:57.746Z,1007.09
2019-03-05T18:18:07.635Z,1007.09
2019-03-05T18:19:17.595Z,1007.06
2019-03-05T18:20:27.303Z,1007.06
2019-03-05T18:21:37.027Z,1007.14
2019-03-05T18:22:46.995Z,1007.13
2019-03-05T18:23:56.279Z,1007.14
2019-03-05T18:25:05.482Z,1007.16
2019-03-05T18:26:15.193Z,1007.15
2019-03-05T18:27:24.658Z,1007.18
2019-03-05T18:28:34.376Z,1007.16
2019-03-05T18:29:44.085Z,1007.17
2019-03-05T18:30:54.053Z,1007.21
2019-03-05T18:32:03.518Z,1007.24
2019-03-05T18:33:12.728Z,1007.29
2019-03-05T18:34:22.689Z,1007.25
2019-03-05T18:35:32.385Z,1007.29
2019-03-05T18:36:41.845Z,1007.34
2019-03-05T18:37:51.836Z,1007.35
2019-03-05T18:39:01.813Z,1007.33
2019-03-05T18:40:11.762Z,1007.38
2019-03-05T18:41:21.226Z,1007.39
2019-03-05T18:42:30.690Z,1007.43
2019-03-05T18:43:40.659Z,1007.44
2019-03-05T18:44:50.362Z,1007.46
2019-03-05T18:46:00.111Z,1007.47
2019-03-05T18:47:09.418Z,1007.47
2019-03-05T18:48:19.126Z,1007.46
2019-03-05T18:49:28.339Z,1007.49
2019-03-05T18:50:38.273Z,1007.5
2019-03-05T18:51:48.150Z,1007.49
2019-03-05T18:52:58.429Z,1007.49
2019-03-05T18:54:08.722Z,1007.51
2019-03-05T18:55:18.823Z,1007.5
2019-03-05T18:56:28.968Z,1007.51
2019-03-05T18:57:38.945Z,1007.52
2019-03-05T18:58:48.666Z,1007.52
2019-03-05T18:59:58.626Z,1007.52
2019-03-05T19:01:09.719Z,1007.52
2019-03-05T19:02:19.800Z,1007.53
2019-03-05T19:03:29.517Z,1007.51
2019-03-05T19:04:38.982Z,1007.5
2019-03-05T19:05:48.688Z,1007.51
2019-03-05T19:06:58.398Z,1007.48
2019-03-05T19:08:07.872Z,1007.5
2019-03-05T19:09:17.581Z,1007.51
2019-03-05T19:10:27.287Z,1007.52
2019-03-05T19:11:37.012Z,1007.55
2019-03-05T19:12:46.490Z,1007.59
2019-03-05T19:13:56.202Z,1007.6
2019-03-05T19:15:06.161Z,1007.61
2019-03-05T19:16:15.874Z,1007.57
2019-03-05T19:17:25.345Z,1007.61
2019-03-05T19:18:35.302Z,1007.66
2019-03-05T19:19:45.018Z,1007.68
2019-03-05T19:20:54.728Z,1007.67
2019-03-05T19:22:04.457Z,1007.64
2019-03-05T19:23:14.421Z,1007.68
2019-03-05T19:24:24.592Z,1007.69
2019-03-05T19:25:34.848Z,1007.7
2019-03-05T19:26:45.132Z,1007.7
2019-03-05T19:27:55.282Z,1007.74
2019-03-05T19:29:05.030Z,1007.73
2019-03-05T19:30:15.182Z,1007.73
2019-03-05T19:31:25.028Z,1007.73
2019-03-05T19:32:34.251Z,1007.74
2019-03-05T19:33:43.807Z,1007.81
2019-03-05T19:34:53.609Z,1007.77
2019-03-05T19:36:03.348Z,1007.76
2019-03-05T19:37:12.585Z,1007.78
2019-03-05T19:38:22.051Z,1007.81
2019-03-05T19:39:31.775Z,1007.84
2019-03-05T19:40:41.531Z,1007.84
2019-03-05T19:41:55.963Z,1007.85
2019-03-05T19:43:06.037Z,1007.86
2019-03-05T19:44:16.034Z,1007.88
2019-03-05T19:45:26.027Z,1007.91
2019-03-05T19:46:35.731Z,1007.9
2019-03-05T19:47:45.434Z,1007.91
2019-03-05T19:48:55.409Z,1007.92
2019-03-05T19:50:04.903Z,1007.96
2019-03-05T19:51:15.598Z,1007.95
2019-03-05T19:52:25.570Z,1008
2019-03-05T19:53:35.310Z,1007.93
2019-03-05T19:54:45.044Z,1007.95
2019-03-05T19:55:54.503Z,1007.96
2019-03-05T19:57:03.986Z,1007.96
2019-03-05T19:58:13.871Z,1007.99
2019-03-05T19:59:23.623Z,1008.01
2019-03-05T20:00:35.742Z,1008.05
2019-03-05T20:01:45.709Z,1008.02
2019-03-05T20:02:55.933Z,1008.04
2019-03-05T20:04:11.570Z,1008.05
2019-03-05T20:05:21.587Z,1008.07
2019-03-05T20:06:31.299Z,1008.05
2019-03-05T20:07:40.501Z,1008.07
2019-03-05T20:08:50.462Z,1008.06
2019-03-05T20:10:00.469Z,1008.1
2019-03-05T20:11:10.213Z,1008.09
2019-03-05T20:12:19.690Z,1008.16
2019-03-05T20:13:31.752Z,1008.17
2019-03-05T20:14:41.768Z,1008.2
2019-03-05T20:15:51.224Z,1008.2
2019-03-05T20:17:00.945Z,1008.22
2019-03-05T20:18:10.674Z,1008.21
2019-03-05T20:19:20.402Z,1008.23
2019-03-05T20:20:30.123Z,1008.21
2019-03-05T20:21:39.838Z,1008.15
2019-03-05T20:22:49.286Z,1008.21
2019-03-05T20:23:58.767Z,1008.19
2019-03-05T20:25:08.750Z,1008.28
2019-03-05T20:26:18.467Z,1008.27
2019-03-05T20:27:28.439Z,1008.26
2019-03-05T20:28:38.684Z,1008.27
2019-03-05T20:29:48.751Z,1008.29
2019-03-05T20:30:58.949Z,1008.3
2019-03-05T20:32:09.386Z,1008.34
2019-03-05T20:33:19.509Z,1008.38
2019-03-05T20:34:29.966Z,1008.4
2019-03-05T20:35:39.918Z,1008.47
2019-03-05T20:36:49.646Z,1008.48
2019-03-05T20:37:59.365Z,1008.5
2019-03-05T20:39:08.847Z,1008.5
2019-03-05T20:40:18.335Z,1008.54
2019-03-05T20:41:28.068Z,1008.53
2019-03-05T20:42:37.566Z,1008.56
2019-03-05T20:43:47.284Z,1008.56
2019-03-05T20:44:56.835Z,1008.59
2019-03-05T20:46:06.334Z,1008.6
2019-03-05T20:47:16.060Z,1008.61
2019-03-05T20:48:25.550Z,1008.6
2019-03-05T20:49:35.298Z,1008.56
2019-03-05T20:50:44.781Z,1008.59
2019-03-05T20:51:54.572Z,1008.61
2019-03-05T20:53:04.587Z,1008.6
2019-03-05T20:54:14.577Z,1008.56
2019-03-05T20:55:24.087Z,1008.61
2019-03-05T20:56:33.817Z,1008.62
2019-03-05T20:57:43.797Z,1008.55
2019-03-05T20:58:53.300Z,1008.56
2019-03-05T21:00:03.016Z,1008.6
2019-03-05T21:01:12.988Z,1008.61
2019-03-05T21:02:22.720Z,1008.6
2019-03-05T21:03:32.738Z,1008.59
2019-03-05T21:04:42.472Z,1008.6
2019-03-05T21:05:51.972Z,1008.66
2019-03-05T21:07:01.453Z,1008.64
2019-03-05T21:08:10.936Z,1008.71
2019-03-05T21:09:20.926Z,1008.72
2019-03-05T21:10:30.820Z,1008.73
2019-03-05T21:11:40.170Z,1008.7
2019-03-05T21:12:50.066Z,1008.68
2019-03-05T21:14:00.386Z,1008.67
2019-03-05T21:15:10.249Z,1008.68
2019-03-05T21:16:20.030Z,1008.7
2019-03-05T21:17:30.100Z,1008.73
2019-03-05T21:18:39.811Z,1008.72
2019-03-05T21:19:49.263Z,1008.74
2019-03-05T21:20:58.964Z,1008.73
2019-03-05T21:22:08.919Z,1008.81
2019-03-05T21:23:18.376Z,1008.8
2019-03-05T21:24:28.078Z,1008.76
2019-03-05T21:25:38.033Z,1008.75
2019-03-05T21:26:47.490Z,1008.76
2019-03-05T21:27:57.021Z,1008.76
2019-03-05T21:29:06.754Z,1008.76
2019-03-05T21:30:16.459Z,1008.79
2019-03-05T21:31:26.427Z,1008.79
2019-03-05T21:32:36.127Z,1008.82
2019-03-05T21:33:45.845Z,1008.84
2019-03-05T21:34:57.041Z,1008.87
2019-03-05T21:36:06.754Z,1008.91
2019-03-05T21:37:15.949Z,1008.88
2019-03-05T21:38:25.651Z,1008.9
2019-03-05T21:39:35.111Z,1008.93
2019-03-05T21:40:44.829Z,1008.9
2019-03-05T21:41:54.535Z,1008.88
2019-03-05T21:43:04.251Z,1008.91
2019-03-05T21:44:13.712Z,1008.94
2019-03-05T21:45:23.165Z,1008.96
2019-03-05T21:46:32.863Z,1008.96
2019-03-05T21:47:42.854Z,1008.94
2019-03-05T21:48:52.468Z,1008.91
2019-03-05T21:50:02.857Z,1008.98
2019-03-05T21:51:13.155Z,1008.95
2019-03-05T21:52:23.342Z,1008.97
2019-03-05T21:53:33.039Z,1008.97
2019-03-05T21:54:42.740Z,1008.98
2019-03-05T21:55:52.715Z,1008.96
2019-03-05T21:57:02.676Z,1008.92
2019-03-05T21:58:12.690Z,1008.94
2019-03-05T21:59:22.665Z,1008.89
2019-03-05T22:00:32.380Z,1008.93
2019-03-05T22:01:41.605Z,1008.95
2019-03-05T22:02:51.073Z,1008.92
2019-03-05T22:04:00.531Z,1008.97
2019-03-05T22:05:10.246Z,1008.95
2019-03-05T22:06:20.195Z,1009
2019-03-05T22:07:29.649Z,1008.96
2019-03-05T22:08:39.609Z,1008.93
2019-03-05T22:09:49.324Z,1008.95
2019-03-05T22:10:59.291Z,1008.93
2019-03-05T22:12:09.252Z,1008.93
2019-03-05T22:13:19.200Z,1008.95
2019-03-05T22:14:28.925Z,1008.93
2019-03-05T22:15:38.876Z,1008.94
2019-03-05T22:16:48.583Z,1008.96
2019-03-05T22:17:58.296Z,1008.93
2019-03-05T22:19:07.506Z,1008.87
2019-03-05T22:20:17.213Z,1008.94
2019-03-05T22:21:26.679Z,1008.89
2019-03-05T22:22:36.649Z,1008.91
2019-03-05T22:23:46.772Z,1008.91
2019-03-05T22:24:56.983Z,1008.92
2019-03-05T22:26:07.139Z,1008.88
2019-03-05T22:27:17.324Z,1008.93
2019-03-05T22:28:26.973Z,1008.94
2019-03-05T22:29:36.383Z,1008.95
2019-03-05T22:30:45.845Z,1008.99
2019-03-05T22:31:55.301Z,1008.93
2019-03-05T22:33:05.015Z,1008.9
2019-03-05T22:34:14.975Z,1008.9
2019-03-05T22:35:24.929Z,1008.92
2019-03-05T22:36:34.391Z,1008.92
2019-03-05T22:37:44.090Z,1008.93
2019-03-05T22:38:53.615Z,1008.93
2019-03-05T22:40:03.079Z,1008.89
2019-03-05T22:41:12.650Z,1008.93
2019-03-05T22:42:22.364Z,1008.97
2019-03-05T22:43:32.314Z,1008.99
2019-03-05T22:44:42.281Z,1008.97
2019-03-05T22:45:51.487Z,1008.96
2019-03-05T22:47:00.934Z,1008.98
2019-03-05T22:48:10.625Z,1008.96
2019-03-05T22:49:20.086Z,1008.99
2019-03-05T22:50:30.057Z,1009
2019-03-05T22:51:39.762Z,1008.99
2019-03-05T22:52:49.470Z,1009.06
2019-03-05T22:53:59.435Z,1009.06
2019-03-05T22:55:09.448Z,1009.02
2019-03-05T22:56:19.418Z,1009.05
2019-03-05T22:57:29.131Z,1009.03
2019-03-05T22:58:39.124Z,1009.06
2019-03-05T22:59:48.840Z,1009.06
2019-03-05T23:00:59.047Z,1009.08
2019-03-05T23:02:09.206Z,1009.03
2019-03-05T23:03:19.267Z,1009.08
2019-03-05T23:04:29.738Z,1009.1
2019-03-05T23:05:39.767Z,1009.13
2019-03-05T23:06:49.446Z,1009.11
2019-03-05T23:07:59.149Z,1009.14
2019-03-05T23:09:08.845Z,1009.14
2019-03-05T23:10:18.543Z,1009.15
2019-03-05T23:11:28.488Z,1009.13
2019-03-05T23:12:38.188Z,1009.14
2019-03-05T23:13:47.890Z,1009.18
2019-03-05T23:14:57.852Z,1009.18
2019-03-05T23:16:07.907Z,1009.19
2019-03-05T23:17:17.870Z,1009.19
2019-03-05T23:18:27.588Z,1009.22
2019-03-05T23:19:37.051Z,1009.22
2019-03-05T23:20:47.014Z,1009.19
2019-03-05T23:21:56.722Z,1009.22
2019-03-05T23:23:06.679Z,1009.23
2019-03-05T23:24:16.654Z,1009.18
2019-03-05T23:25:26.397Z,1009.18
2019-03-05T23:26:36.404Z,1009.23
2019-03-05T23:27:46.114Z,1009.21
2019-03-05T23:28:56.131Z,1009.21
2019-03-05T23:30:05.836Z,1009.2
2019-03-05T23:31:15.803Z,1009.19
2019-03-05T23:32:25.520Z,1009.18
2019-03-05T23:33:35.230Z,1009.26
2019-03-05T23:34:45.190Z,1009.25
2019-03-05T23:35:55.193Z,1009.26
2019-03-05T23:37:05.447Z,1009.24
2019-03-05T23:38:15.757Z,1009.26
2019-03-05T23:39:26.082Z,1009.25
2019-03-05T23:40:36.321Z,1009.24
2019-03-05T23:41:46.378Z,1009.24
2019-03-05T23:42:56.436Z,1009.21
2019-03-05T23:44:05.638Z,1009.25
2019-03-05T23:45:15.594Z,1009.26
2019-03-05T23:46:25.317Z,1009.17
2019-03-05T23:47:34.531Z,1009.16
2019-03-05T23:48:43.983Z,1009.19
2019-03-05T23:49:54.013Z,1009.17
2019-03-05T23:51:03.985Z,1009.21
2019-03-05T23:52:13.935Z,1009.16
2019-03-05T23:53:23.389Z,1009.17
2019-03-05T23:54:32.887Z,1009.18
2019-03-05T23:55:42.087Z,1009.22
2019-03-05T23:56:52.061Z,1009.19
2019-03-05T23:58:01.501Z,1009.22
2019-03-05T23:59:11.457Z,1009.15
